createdAt,value
2017-02-12T00:01:08.934Z,0
2017-02-12T00:02:19.701Z,0
2017-02-12T00:03:30.110Z,0
2017-02-12T00:04:40.453Z,0
2017-02-12T00:05:50.873Z,0
2017-02-12T00:07:00.833Z,0
2017-02-12T00:08:11.566Z,0
2017-02-12T00:09:21.921Z,0
2017-02-12T00:10:32.673Z,0
2017-02-12T00:11:43.041Z,0
2017-02-12T00:12:53.798Z,0
2017-02-12T00:14:04.545Z,0
2017-02-12T00:15:14.888Z,0
2017-02-12T00:16:25.626Z,0
2017-02-12T00:17:36.423Z,0
2017-02-12T00:18:47.157Z,0
2017-02-12T00:19:57.148Z,0
2017-02-12T00:21:07.120Z,0
2017-02-12T00:22:17.479Z,0
2017-02-12T00:23:27.850Z,0
2017-02-12T00:24:38.234Z,0
2017-02-12T00:25:48.581Z,0
2017-02-12T00:26:58.965Z,0
2017-02-12T00:28:09.725Z,0
2017-02-12T00:29:20.150Z,0
2017-02-12T00:30:30.501Z,0
2017-02-12T00:31:41.252Z,0
2017-02-12T00:32:52.000Z,0
2017-02-12T00:34:02.770Z,0
2017-02-12T00:35:13.515Z,0
2017-02-12T00:36:24.296Z,0
2017-02-12T00:37:34.650Z,0
2017-02-12T00:38:44.600Z,0
2017-02-12T00:39:55.345Z,0
2017-02-12T00:41:05.691Z,0
2017-02-12T00:42:16.466Z,0
2017-02-12T00:43:27.218Z,0
2017-02-12T00:44:37.980Z,0
2017-02-12T00:45:48.735Z,0
2017-02-12T00:46:59.529Z,0
2017-02-12T00:48:09.958Z,0
2017-02-12T00:49:20.308Z,0
2017-02-12T00:50:30.659Z,0
2017-02-12T00:51:41.425Z,0
2017-02-12T00:52:52.218Z,0
2017-02-12T00:54:02.582Z,0
2017-02-12T00:55:13.354Z,0
2017-02-12T00:56:23.702Z,0
2017-02-12T00:57:33.673Z,0
2017-02-12T00:58:44.038Z,0
2017-02-12T00:59:54.844Z,0
2017-02-12T01:01:05.585Z,0
2017-02-12T01:02:15.935Z,0
2017-02-12T01:03:26.280Z,0
2017-02-12T01:04:37.078Z,0
2017-02-12T01:05:47.429Z,0
2017-02-12T01:06:58.164Z,0
2017-02-12T01:08:08.907Z,0
2017-02-12T01:09:19.653Z,0
2017-02-12T01:10:30.404Z,0
2017-02-12T01:11:40.758Z,0
2017-02-12T01:12:51.111Z,0
2017-02-12T01:14:01.452Z,0
2017-02-12T01:15:11.801Z,0
2017-02-12T01:16:22.576Z,0
2017-02-12T01:17:32.925Z,0
2017-02-12T01:18:42.904Z,0
2017-02-12T01:19:53.243Z,0
2017-02-12T01:21:03.993Z,0
2017-02-12T01:22:14.735Z,0
2017-02-12T01:23:25.478Z,0
2017-02-12T01:24:36.229Z,0
2017-02-12T01:25:46.971Z,0
2017-02-12T01:26:57.722Z,0
2017-02-12T01:28:08.469Z,0
2017-02-12T01:29:18.418Z,0
2017-02-12T01:30:28.378Z,0
2017-02-12T01:31:38.335Z,0
2017-02-12T01:32:49.081Z,0
2017-02-12T01:33:58.642Z,0
2017-02-12T01:35:09.392Z,0
2017-02-12T01:36:19.736Z,0
2017-02-12T01:37:29.312Z,0
2017-02-12T01:38:40.056Z,0
2017-02-12T01:39:50.502Z,0
2017-02-12T01:41:00.465Z,0
2017-02-12T01:42:10.814Z,0
2017-02-12T01:43:21.556Z,0
2017-02-12T01:44:32.287Z,0
2017-02-12T01:45:42.238Z,0
2017-02-12T01:46:52.616Z,0
2017-02-12T01:48:03.364Z,0
2017-02-12T01:49:13.317Z,0
2017-02-12T01:50:23.662Z,0
2017-02-12T01:51:34.019Z,0
2017-02-12T01:52:44.367Z,0
2017-02-12T01:53:54.719Z,0
2017-02-12T01:55:05.474Z,0
2017-02-12T01:56:15.840Z,0
2017-02-12T01:57:26.596Z,0
2017-02-12T01:58:37.343Z,0
2017-02-12T01:59:48.086Z,0
2017-02-12T02:00:58.435Z,0
2017-02-12T02:02:08.793Z,0
2017-02-12T02:03:18.746Z,0
2017-02-12T02:04:29.083Z,0
2017-02-12T02:05:39.031Z,0
2017-02-12T02:06:48.587Z,0
2017-02-12T02:07:58.934Z,0
2017-02-12T02:09:08.900Z,0
2017-02-12T02:10:19.245Z,0
2017-02-12T02:11:29.992Z,0
2017-02-12T02:12:40.342Z,0
2017-02-12T02:13:51.081Z,0
2017-02-12T02:15:01.828Z,0
2017-02-12T02:16:12.575Z,0
2017-02-12T02:17:22.543Z,0
2017-02-12T02:18:32.884Z,0
2017-02-12T02:19:42.838Z,0
2017-02-12T02:20:53.181Z,0
2017-02-12T02:22:03.933Z,0
2017-02-12T02:23:14.675Z,0
2017-02-12T02:24:24.633Z,0
2017-02-12T02:25:35.405Z,0
2017-02-12T02:26:46.154Z,0
2017-02-12T02:27:56.912Z,0
2017-02-12T02:29:06.930Z,0
2017-02-12T02:30:17.329Z,0
2017-02-12T02:31:28.077Z,0
2017-02-12T02:32:38.823Z,0
2017-02-12T02:33:48.784Z,0
2017-02-12T02:34:59.122Z,0
2017-02-12T02:36:09.077Z,0
2017-02-12T02:37:19.444Z,0
2017-02-12T02:38:30.221Z,0
2017-02-12T02:39:40.970Z,0
2017-02-12T02:40:51.332Z,0
2017-02-12T02:42:01.676Z,0
2017-02-12T02:43:12.420Z,0
2017-02-12T02:44:23.168Z,0
2017-02-12T02:45:33.518Z,0
2017-02-12T02:46:43.869Z,0
2017-02-12T02:47:53.817Z,0
2017-02-12T02:49:04.178Z,0
2017-02-12T02:50:14.431Z,0
2017-02-12T02:51:25.213Z,0
2017-02-12T02:52:35.958Z,0
2017-02-12T02:53:46.313Z,0
2017-02-12T02:54:57.072Z,0
2017-02-12T02:56:07.423Z,0
2017-02-12T02:57:17.765Z,0
2017-02-12T02:58:28.128Z,0
2017-02-12T02:59:38.097Z,0
2017-02-12T03:00:48.881Z,0
2017-02-12T03:33:18.181Z,0
2017-02-12T03:34:28.513Z,0
2017-02-12T03:35:39.242Z,0
2017-02-12T03:36:48.790Z,0
2017-02-12T03:37:59.536Z,0
2017-02-12T03:39:09.879Z,0
2017-02-12T03:40:20.238Z,0
2017-02-12T03:41:30.577Z,0
2017-02-12T03:42:41.312Z,0
2017-02-12T03:43:51.268Z,0
2017-02-12T03:45:02.032Z,0
2017-02-12T03:46:12.761Z,0
2017-02-12T03:47:22.729Z,0
2017-02-12T03:48:33.072Z,0
2017-02-12T03:49:43.422Z,0
2017-02-12T03:50:53.769Z,0
2017-02-12T03:52:04.515Z,0
2017-02-12T03:53:15.258Z,0
2017-02-12T03:54:25.611Z,0
2017-02-12T03:55:36.356Z,0
2017-02-12T03:56:47.094Z,0
2017-02-12T03:57:57.840Z,0
2017-02-12T03:59:07.799Z,0
2017-02-12T04:00:18.159Z,0
2017-02-12T04:01:27.722Z,0
2017-02-12T04:02:38.276Z,0
2017-02-12T04:03:49.021Z,0
2017-02-12T04:04:59.767Z,0
2017-02-12T04:06:10.110Z,0
2017-02-12T04:07:20.863Z,0
2017-02-12T04:08:31.273Z,0
2017-02-12T04:09:41.608Z,0
2017-02-12T04:10:52.367Z,0
2017-02-12T04:12:03.108Z,0
2017-02-12T04:13:13.890Z,0
2017-02-12T04:14:24.287Z,0
2017-02-12T04:15:34.639Z,0
2017-02-12T04:16:45.383Z,0
2017-02-12T04:17:55.740Z,0
2017-02-12T04:19:06.101Z,0
2017-02-12T04:20:16.446Z,0
2017-02-12T04:21:27.429Z,0
2017-02-12T04:22:37.797Z,0
2017-02-12T04:23:48.547Z,0
2017-02-12T04:24:58.907Z,0
2017-02-12T04:26:09.340Z,0
2017-02-12T04:27:19.686Z,0
2017-02-12T04:28:30.035Z,0
2017-02-12T04:29:40.007Z,0
2017-02-12T04:30:50.761Z,0
2017-02-12T04:32:01.495Z,0
2017-02-12T04:33:11.841Z,0
2017-02-12T04:34:22.193Z,0
2017-02-12T04:35:32.949Z,0
2017-02-12T04:36:43.302Z,0
2017-02-12T04:37:52.463Z,0
2017-02-12T04:39:02.434Z,0
2017-02-12T04:40:12.771Z,0
2017-02-12T04:41:23.523Z,0
2017-02-12T04:42:34.286Z,0
2017-02-12T04:43:45.022Z,0
2017-02-12T04:44:55.812Z,0
2017-02-12T04:46:06.177Z,0
2017-02-12T04:47:16.925Z,0
2017-02-12T04:48:27.673Z,0
2017-02-12T04:49:38.417Z,0
2017-02-12T04:50:49.177Z,0
2017-02-12T04:51:58.739Z,0
2017-02-12T04:53:09.479Z,0
2017-02-12T04:54:20.218Z,0
2017-02-12T04:55:29.788Z,0
2017-02-12T04:56:40.531Z,0
2017-02-12T04:57:50.874Z,0
2017-02-12T04:59:00.049Z,0
2017-02-12T05:00:10.405Z,0
2017-02-12T05:01:20.354Z,0
2017-02-12T05:02:30.694Z,0
2017-02-12T05:03:40.642Z,0
2017-02-12T05:04:50.982Z,0
2017-02-12T05:06:01.714Z,0
2017-02-12T05:07:12.116Z,0
2017-02-12T05:08:22.454Z,0
2017-02-12T05:09:33.205Z,0
2017-02-12T05:10:43.563Z,0
2017-02-12T05:11:53.923Z,0
2017-02-12T05:13:04.666Z,0
2017-02-12T05:14:15.028Z,0
2017-02-12T05:15:25.385Z,0
2017-02-12T05:16:35.730Z,0
2017-02-12T05:17:46.086Z,0
2017-02-12T05:18:56.037Z,0
2017-02-12T05:20:06.398Z,0
2017-02-12T05:21:16.770Z,0
2017-02-12T05:22:27.503Z,0
2017-02-12T05:23:38.245Z,0
2017-02-12T05:24:48.654Z,0
2017-02-12T05:25:59.390Z,0
2017-02-12T05:27:09.748Z,0
2017-02-12T05:28:20.098Z,0
2017-02-12T05:29:30.440Z,0
2017-02-12T05:30:40.792Z,0
2017-02-12T05:31:51.541Z,0
2017-02-12T05:33:01.526Z,0
2017-02-12T05:34:12.281Z,0
2017-02-12T05:35:23.034Z,0
2017-02-12T05:36:33.383Z,0
2017-02-12T05:37:44.130Z,0
2017-02-12T05:38:54.474Z,0
2017-02-12T05:40:04.439Z,0
2017-02-12T05:41:14.848Z,0
2017-02-12T05:42:25.598Z,0
2017-02-12T05:43:35.938Z,0
2017-02-12T05:44:46.285Z,0
2017-02-12T05:45:55.854Z,0
2017-02-12T05:47:06.204Z,0
2017-02-12T05:48:16.591Z,0
2017-02-12T05:49:27.329Z,0
2017-02-12T05:50:38.072Z,0
2017-02-12T05:51:48.422Z,0
2017-02-12T05:52:58.762Z,0
2017-02-12T05:54:09.101Z,0
2017-02-12T05:55:19.446Z,0
2017-02-12T05:56:29.813Z,0
2017-02-12T05:57:40.563Z,0
2017-02-12T05:58:51.307Z,0
2017-02-12T06:00:02.102Z,0
2017-02-12T06:01:12.052Z,0
2017-02-12T06:02:22.792Z,0
2017-02-12T06:03:33.535Z,0
2017-02-12T06:04:43.503Z,0
2017-02-12T06:05:54.256Z,0
2017-02-12T06:07:04.241Z,0
2017-02-12T06:08:14.993Z,0
2017-02-12T06:09:25.727Z,0
2017-02-12T06:10:36.071Z,0
2017-02-12T06:11:46.461Z,0
2017-02-12T06:12:56.399Z,0
2017-02-12T06:14:07.148Z,0
2017-02-12T06:15:17.708Z,0
2017-02-12T06:16:28.054Z,0
2017-02-12T06:17:38.004Z,5
2017-02-12T06:18:48.366Z,5
2017-02-12T06:19:58.709Z,5
2017-02-12T06:21:08.665Z,5
2017-02-12T06:22:19.016Z,5
2017-02-12T06:23:29.765Z,5
2017-02-12T06:24:40.120Z,5
2017-02-12T06:25:50.872Z,10
2017-02-12T06:27:01.230Z,10
2017-02-12T06:28:12.209Z,10
2017-02-12T06:29:22.147Z,10
2017-02-12T06:30:32.091Z,10
2017-02-12T06:31:42.470Z,10
2017-02-12T06:32:52.821Z,10
2017-02-12T06:34:03.590Z,10
2017-02-12T06:35:14.326Z,10
2017-02-12T06:36:25.081Z,10
2017-02-12T06:37:35.828Z,15
2017-02-12T06:38:46.570Z,15
2017-02-12T06:39:56.922Z,15
2017-02-12T06:41:07.689Z,15
2017-02-12T06:42:18.423Z,15
2017-02-12T06:43:28.772Z,15
2017-02-12T06:44:39.118Z,15
2017-02-12T06:45:49.466Z,15
2017-02-12T06:46:59.819Z,20
2017-02-12T06:48:10.179Z,20
2017-02-12T06:49:20.581Z,20
2017-02-12T06:50:31.327Z,20
2017-02-12T06:51:42.080Z,25
2017-02-12T06:52:52.476Z,25
2017-02-12T06:54:02.838Z,25
2017-02-12T06:55:12.795Z,25
2017-02-12T06:56:23.147Z,25
2017-02-12T06:57:33.901Z,25
2017-02-12T06:58:44.250Z,25
2017-02-12T06:59:54.992Z,25
2017-02-12T07:01:05.347Z,25
2017-02-12T07:02:16.082Z,30
2017-02-12T07:03:26.828Z,30
2017-02-12T07:04:37.569Z,30
2017-02-12T07:05:48.317Z,30
2017-02-12T07:06:58.877Z,30
2017-02-12T07:08:09.243Z,30
2017-02-12T07:09:19.979Z,35
2017-02-12T07:10:30.343Z,35
2017-02-12T07:11:40.294Z,35
2017-02-12T07:12:51.060Z,35
2017-02-12T07:14:01.809Z,35
2017-02-12T07:15:12.542Z,40
2017-02-12T07:16:22.485Z,40
2017-02-12T07:17:32.854Z,40
2017-02-12T07:18:43.209Z,40
2017-02-12T07:19:53.958Z,40
2017-02-12T07:21:04.687Z,40
2017-02-12T07:22:15.031Z,45
2017-02-12T07:23:25.385Z,45
2017-02-12T07:24:35.724Z,45
2017-02-12T07:25:46.454Z,45
2017-02-12T07:26:56.800Z,45
2017-02-12T07:28:06.754Z,45
2017-02-12T07:29:17.510Z,45
2017-02-12T07:30:28.252Z,45
2017-02-12T07:31:39.013Z,45
2017-02-12T07:32:49.753Z,45
2017-02-12T07:34:00.542Z,45
2017-02-12T07:35:11.296Z,45
2017-02-12T07:36:21.658Z,45
2017-02-12T07:37:32.021Z,50
2017-02-12T07:38:41.969Z,45
2017-02-12T07:39:52.326Z,50
2017-02-12T07:41:03.089Z,50
2017-02-12T07:42:13.513Z,50
2017-02-12T07:43:24.296Z,50
2017-02-12T07:44:35.045Z,55
2017-02-12T07:45:45.794Z,55
2017-02-12T07:46:55.775Z,55
2017-02-12T07:48:06.526Z,55
2017-02-12T07:49:16.883Z,60
2017-02-12T07:50:27.232Z,60
2017-02-12T07:51:37.978Z,60
2017-02-12T07:52:48.719Z,60
2017-02-12T07:53:58.265Z,65
2017-02-12T07:55:08.613Z,70
2017-02-12T07:56:18.566Z,70
2017-02-12T07:57:28.570Z,70
2017-02-12T07:58:38.542Z,70
2017-02-12T07:59:49.284Z,75
2017-02-12T08:01:00.027Z,75
2017-02-12T08:02:10.388Z,75
2017-02-12T08:03:21.130Z,75
2017-02-12T08:04:31.545Z,80
2017-02-12T08:05:42.300Z,80
2017-02-12T08:06:53.044Z,85
2017-02-12T08:08:03.022Z,85
2017-02-12T08:09:13.804Z,85
2017-02-12T08:10:24.158Z,85
2017-02-12T08:11:34.508Z,85
2017-02-12T08:12:45.252Z,85
2017-02-12T08:13:55.205Z,85
2017-02-12T08:15:05.555Z,85
2017-02-12T08:16:15.533Z,85
2017-02-12T08:17:25.891Z,85
2017-02-12T08:18:35.861Z,85
2017-02-12T08:19:45.820Z,85
2017-02-12T08:20:55.780Z,85
2017-02-12T08:22:06.135Z,85
2017-02-12T08:23:16.490Z,90
2017-02-12T08:24:26.878Z,90
2017-02-12T08:25:37.639Z,90
2017-02-12T08:26:48.388Z,85
2017-02-12T08:27:59.135Z,85
2017-02-12T08:29:09.092Z,85
2017-02-12T08:30:19.837Z,85
2017-02-12T08:31:30.585Z,85
2017-02-12T08:32:40.947Z,80
2017-02-12T08:33:51.340Z,75
2017-02-12T08:35:00.899Z,75
2017-02-12T08:36:11.646Z,75
2017-02-12T08:37:21.206Z,75
2017-02-12T08:38:31.945Z,75
2017-02-12T08:39:42.312Z,75
2017-02-12T08:40:53.054Z,75
2017-02-12T08:42:03.796Z,75
2017-02-12T08:43:14.553Z,75
2017-02-12T08:44:24.961Z,75
2017-02-12T08:45:35.292Z,75
2017-02-12T08:46:45.637Z,75
2017-02-12T08:47:56.011Z,75
2017-02-12T08:49:06.375Z,75
2017-02-12T08:50:17.174Z,80
2017-02-12T08:51:27.919Z,80
2017-02-12T08:52:38.675Z,80
2017-02-12T08:53:49.022Z,80
2017-02-12T08:54:59.799Z,80
2017-02-12T08:56:09.757Z,80
2017-02-12T08:57:19.718Z,75
2017-02-12T08:58:30.067Z,80
2017-02-12T08:59:40.423Z,80
2017-02-12T09:00:50.804Z,80
2017-02-12T09:02:00.420Z,75
2017-02-12T09:03:10.778Z,75
2017-02-12T09:04:21.143Z,75
2017-02-12T09:05:31.498Z,75
2017-02-12T09:06:41.860Z,75
2017-02-12T09:07:52.271Z,80
2017-02-12T09:09:02.646Z,85
2017-02-12T09:10:13.001Z,85
2017-02-12T09:11:23.347Z,85
2017-02-12T09:12:34.105Z,85
2017-02-12T09:13:44.458Z,85
2017-02-12T09:14:54.425Z,85
2017-02-12T09:16:04.380Z,95
2017-02-12T09:17:15.127Z,100
2017-02-12T09:18:25.075Z,100
2017-02-12T09:19:35.527Z,95
2017-02-12T09:20:46.274Z,95
2017-02-12T09:21:55.839Z,95
2017-02-12T09:23:06.596Z,95
2017-02-12T09:24:17.376Z,100
2017-02-12T09:25:27.353Z,100
2017-02-12T09:26:37.715Z,100
2017-02-12T09:27:47.698Z,95
2017-02-12T09:28:57.654Z,90
2017-02-12T09:30:08.001Z,90
2017-02-12T09:31:18.754Z,90
2017-02-12T09:32:28.723Z,85
2017-02-12T09:33:38.681Z,85
2017-02-12T09:34:49.438Z,90
2017-02-12T09:35:59.840Z,95
2017-02-12T09:37:10.592Z,100
2017-02-12T09:38:20.164Z,105
2017-02-12T09:39:30.506Z,105
2017-02-12T09:40:41.241Z,105
2017-02-12T09:41:51.597Z,100
2017-02-12T09:43:02.388Z,105
2017-02-12T09:44:13.155Z,105
2017-02-12T09:45:23.517Z,105
2017-02-12T09:46:34.256Z,105
2017-02-12T09:47:44.610Z,105
2017-02-12T09:48:54.993Z,105
2017-02-12T09:50:05.744Z,100
2017-02-12T09:51:16.110Z,100
2017-02-12T09:52:26.079Z,95
2017-02-12T09:53:36.453Z,95
2017-02-12T09:54:47.221Z,100
2017-02-12T09:55:57.576Z,110
2017-02-12T09:57:07.935Z,110
2017-02-12T09:58:18.297Z,110
2017-02-12T09:59:28.274Z,110
2017-02-12T10:00:39.095Z,110
2017-02-12T10:01:49.030Z,110
2017-02-12T10:02:59.382Z,110
2017-02-12T10:04:10.130Z,110
2017-02-12T10:05:19.687Z,110
2017-02-12T10:06:29.644Z,110
2017-02-12T10:07:40.445Z,115
2017-02-12T10:08:50.807Z,120
2017-02-12T10:10:01.562Z,125
2017-02-12T10:11:11.910Z,120
2017-02-12T10:12:22.266Z,120
2017-02-12T10:13:33.024Z,125
2017-02-12T10:14:43.376Z,130
2017-02-12T10:15:52.948Z,130
2017-02-12T10:17:02.917Z,130
2017-02-12T10:18:13.663Z,130
2017-02-12T10:19:24.420Z,130
2017-02-12T10:20:34.382Z,135
2017-02-12T10:21:44.357Z,135
2017-02-12T10:29:15.723Z,165
2017-02-12T10:30:25.684Z,170
2017-02-12T10:34:08.068Z,160
2017-02-12T10:35:18.817Z,155
2017-02-12T10:36:28.767Z,150
2017-02-12T10:37:39.518Z,150
2017-02-12T10:38:50.260Z,150
2017-02-12T10:40:00.233Z,145
2017-02-12T10:41:10.988Z,145
2017-02-12T10:42:21.744Z,145
2017-02-12T10:43:31.702Z,145
2017-02-12T10:44:42.055Z,145
2017-02-12T10:45:52.401Z,140
2017-02-12T10:47:02.759Z,145
2017-02-12T10:48:13.516Z,140
2017-02-12T10:49:24.269Z,135
2017-02-12T10:50:34.691Z,135
2017-02-12T10:51:45.437Z,130
2017-02-12T10:52:56.193Z,130
2017-02-12T10:54:06.943Z,130
2017-02-12T10:55:16.906Z,135
2017-02-12T10:56:27.639Z,140
2017-02-12T10:57:38.441Z,150
2017-02-12T10:58:48.789Z,155
2017-02-12T10:59:59.143Z,165
2017-02-12T11:01:09.888Z,170
2017-02-12T11:02:19.842Z,175
2017-02-12T11:03:30.601Z,175
2017-02-12T11:04:41.356Z,170
2017-02-12T11:05:51.696Z,170
2017-02-12T11:07:02.061Z,170
2017-02-12T11:08:12.422Z,170
2017-02-12T11:09:22.778Z,185
2017-02-12T11:10:33.138Z,185
2017-02-12T11:11:42.709Z,185
2017-02-12T11:12:53.465Z,190
2017-02-12T11:14:03.826Z,195
2017-02-12T11:15:14.183Z,205
2017-02-12T11:16:24.526Z,210
2017-02-12T11:17:35.293Z,215
2017-02-12T11:18:46.053Z,210
2017-02-12T11:19:56.794Z,200
2017-02-12T11:21:07.138Z,190
2017-02-12T11:22:17.947Z,180
2017-02-12T11:23:28.707Z,180
2017-02-12T11:24:39.065Z,175
2017-02-12T11:25:49.822Z,170
2017-02-12T11:27:00.568Z,165
2017-02-12T11:28:11.328Z,160
2017-02-12T11:29:21.699Z,155
2017-02-12T11:30:32.442Z,150
2017-02-12T11:31:43.196Z,150
2017-02-12T11:32:53.996Z,150
2017-02-12T11:34:04.734Z,160
2017-02-12T11:35:14.699Z,165
2017-02-12T11:36:24.670Z,170
2017-02-12T11:37:35.420Z,165
2017-02-12T11:38:46.186Z,165
2017-02-12T11:39:56.533Z,165
2017-02-12T11:41:06.109Z,165
2017-02-12T11:42:16.867Z,165
2017-02-12T11:43:27.226Z,165
2017-02-12T11:44:38.027Z,170
2017-02-12T11:45:47.998Z,165
2017-02-12T11:46:58.345Z,165
2017-02-12T11:48:09.113Z,160
2017-02-12T11:49:19.458Z,155
2017-02-12T11:50:30.209Z,150
2017-02-12T11:51:39.779Z,140
2017-02-12T11:52:50.533Z,135
2017-02-12T11:54:01.283Z,130
2017-02-12T11:55:12.082Z,130
2017-02-12T11:56:22.045Z,130
2017-02-12T11:57:31.996Z,125
2017-02-12T11:58:42.782Z,125
2017-02-12T11:59:53.525Z,120
2017-02-12T12:01:03.887Z,120
2017-02-12T12:02:14.637Z,115
2017-02-12T12:03:25.399Z,110
2017-02-12T12:04:36.162Z,115
2017-02-12T12:05:46.919Z,115
2017-02-12T12:06:57.265Z,115
2017-02-12T12:08:08.084Z,120
2017-02-12T12:09:18.053Z,120
2017-02-12T12:10:28.828Z,120
2017-02-12T12:11:39.592Z,115
2017-02-12T12:12:50.342Z,110
2017-02-12T12:14:00.766Z,105
2017-02-12T12:15:10.753Z,105
2017-02-12T12:16:21.509Z,105
2017-02-12T12:17:31.865Z,105
2017-02-12T12:18:42.221Z,105
2017-02-12T12:19:52.580Z,105
2017-02-12T12:21:02.976Z,105
2017-02-12T12:22:13.323Z,100
2017-02-12T12:23:24.094Z,100
2017-02-12T12:24:34.453Z,100
2017-02-12T12:25:45.213Z,100
2017-02-12T12:26:55.174Z,105
2017-02-12T12:28:05.156Z,100
2017-02-12T12:29:15.520Z,105
2017-02-12T12:30:25.880Z,105
2017-02-12T12:31:36.642Z,105
2017-02-12T12:32:47.404Z,105
2017-02-12T12:33:58.154Z,100
2017-02-12T12:35:08.890Z,100
2017-02-12T12:36:19.661Z,100
2017-02-12T12:37:30.492Z,95
2017-02-12T12:38:40.457Z,95
2017-02-12T12:39:51.248Z,90
2017-02-12T12:41:01.615Z,85
2017-02-12T12:42:11.966Z,85
2017-02-12T12:43:21.121Z,85
2017-02-12T12:44:31.481Z,85
2017-02-12T12:45:41.827Z,85
2017-02-12T12:46:51.783Z,85
2017-02-12T12:48:02.536Z,85
2017-02-12T12:49:12.888Z,85
2017-02-12T12:50:23.240Z,85
2017-02-12T12:51:33.589Z,85
2017-02-12T12:52:44.352Z,90
2017-02-12T12:53:54.770Z,95
2017-02-12T12:55:05.575Z,95
2017-02-12T12:56:15.942Z,95
2017-02-12T12:57:25.898Z,90
2017-02-12T12:58:36.240Z,85
2017-02-12T12:59:45.809Z,85
2017-02-12T13:00:56.565Z,80
2017-02-12T13:02:07.312Z,75
2017-02-12T13:03:17.659Z,75
2017-02-12T13:04:28.020Z,75
2017-02-12T13:05:38.376Z,75
2017-02-12T13:06:49.173Z,75
2017-02-12T13:07:59.935Z,75
2017-02-12T13:09:10.701Z,75
2017-02-12T13:10:21.069Z,80
2017-02-12T13:11:31.429Z,85
2017-02-12T13:12:41.841Z,85
2017-02-12T13:13:52.225Z,85
2017-02-12T13:15:03.004Z,90
2017-02-12T13:16:13.377Z,90
2017-02-12T13:17:23.734Z,90
2017-02-12T13:18:34.084Z,95
2017-02-12T13:19:44.447Z,100
2017-02-12T13:20:55.185Z,95
2017-02-12T13:22:05.151Z,95
2017-02-12T13:23:15.116Z,100
2017-02-12T13:24:25.470Z,105
2017-02-12T13:25:36.230Z,105
2017-02-12T13:26:46.183Z,105
2017-02-12T13:27:56.939Z,100
2017-02-12T13:29:07.695Z,100
2017-02-12T13:30:18.432Z,100
2017-02-12T13:31:28.397Z,100
2017-02-12T13:32:39.163Z,100
2017-02-12T13:33:49.140Z,100
2017-02-12T13:34:59.896Z,95
2017-02-12T13:36:10.272Z,95
2017-02-12T13:37:21.046Z,95
2017-02-12T13:38:31.792Z,95
2017-02-12T13:39:42.141Z,100
2017-02-12T13:40:52.905Z,100
2017-02-12T13:42:02.976Z,95
2017-02-12T13:43:13.832Z,95
2017-02-12T13:44:24.195Z,95
2017-02-12T13:45:34.546Z,95
2017-02-12T13:46:45.279Z,90
2017-02-12T13:47:56.018Z,90
2017-02-12T13:49:06.765Z,90
2017-02-12T13:50:17.522Z,85
2017-02-12T13:51:27.883Z,85
2017-02-12T13:52:38.641Z,85
2017-02-12T13:53:49.406Z,85
2017-02-12T13:55:00.185Z,85
2017-02-12T13:56:10.173Z,85
2017-02-12T13:57:20.936Z,80
2017-02-12T13:58:31.711Z,85
2017-02-12T13:59:42.481Z,80
2017-02-12T14:00:52.447Z,80
2017-02-12T14:02:03.248Z,80
2017-02-12T14:03:13.595Z,75
2017-02-12T14:04:23.987Z,75
2017-02-12T14:05:34.725Z,75
2017-02-12T14:06:45.470Z,70
2017-02-12T14:07:55.844Z,70
2017-02-12T14:09:06.218Z,70
2017-02-12T14:10:16.603Z,65
2017-02-12T14:11:27.381Z,65
2017-02-12T14:12:37.739Z,65
2017-02-12T14:13:48.510Z,60
2017-02-12T14:14:59.299Z,60
2017-02-12T14:16:10.059Z,55
2017-02-12T14:17:20.443Z,55
2017-02-12T14:18:30.815Z,50
2017-02-12T14:19:41.170Z,50
2017-02-12T14:20:51.929Z,50
2017-02-12T14:22:02.679Z,45
2017-02-12T14:23:13.486Z,45
2017-02-12T14:24:23.855Z,45
2017-02-12T14:25:33.852Z,45
2017-02-12T14:26:44.618Z,45
2017-02-12T14:27:54.991Z,45
2017-02-12T14:29:05.811Z,40
2017-02-12T14:30:16.264Z,40
2017-02-12T14:31:27.048Z,40
2017-02-12T14:32:37.011Z,45
2017-02-12T14:33:47.819Z,45
2017-02-12T14:34:57.419Z,45
2017-02-12T14:36:06.995Z,45
2017-02-12T14:37:17.754Z,45
2017-02-12T14:38:28.552Z,45
2017-02-12T14:39:39.320Z,45
2017-02-12T14:40:49.305Z,45
2017-02-12T14:41:58.895Z,40
2017-02-12T14:43:09.316Z,40
2017-02-12T14:44:19.687Z,40
2017-02-12T14:45:30.068Z,40
2017-02-12T14:46:40.916Z,40
2017-02-12T14:47:50.897Z,40
2017-02-12T14:49:01.694Z,40
2017-02-12T14:50:12.074Z,40
2017-02-12T14:51:22.874Z,40
2017-02-12T14:52:33.657Z,40
2017-02-12T14:53:44.417Z,40
2017-02-12T14:54:54.380Z,40
2017-02-12T14:56:04.754Z,40
2017-02-12T14:57:14.738Z,40
2017-02-12T14:58:25.163Z,35
2017-02-12T14:59:35.953Z,35
2017-02-12T15:00:46.313Z,35
2017-02-12T15:01:57.066Z,35
2017-02-12T15:03:07.818Z,30
2017-02-12T15:04:17.830Z,30
2017-02-12T15:05:27.791Z,30
2017-02-12T15:06:38.176Z,30
2017-02-12T15:07:48.960Z,30
2017-02-12T15:08:59.335Z,25
2017-02-12T15:10:10.096Z,25
2017-02-12T15:11:20.918Z,25
2017-02-12T15:12:30.947Z,25
2017-02-12T15:13:41.728Z,25
2017-02-12T15:14:52.103Z,25
2017-02-12T15:16:03.123Z,25
2017-02-12T15:17:12.344Z,25
2017-02-12T15:18:22.734Z,25
2017-02-12T15:19:33.096Z,25
2017-02-12T15:20:43.912Z,25
2017-02-12T15:21:54.313Z,25
2017-02-12T15:23:04.286Z,25
2017-02-12T15:24:14.243Z,20
2017-02-12T15:25:23.826Z,20
2017-02-12T15:26:34.577Z,20
2017-02-12T15:27:44.979Z,20
2017-02-12T15:28:55.745Z,20
2017-02-12T15:30:06.128Z,20
2017-02-12T15:31:16.897Z,20
2017-02-12T15:32:27.658Z,20
2017-02-12T15:33:37.608Z,15
2017-02-12T15:34:48.362Z,15
2017-02-12T15:35:58.774Z,15
2017-02-12T15:37:09.538Z,15
2017-02-12T15:38:19.543Z,15
2017-02-12T15:39:29.992Z,15
2017-02-12T15:40:40.416Z,15
2017-02-12T15:41:50.789Z,15
2017-02-12T15:43:01.164Z,15
2017-02-12T15:44:11.953Z,10
2017-02-12T15:45:22.309Z,10
2017-02-12T15:46:33.076Z,10
2017-02-12T15:47:42.639Z,10
2017-02-12T15:48:53.001Z,10
2017-02-12T15:50:03.360Z,10
2017-02-12T15:51:14.162Z,10
2017-02-12T15:52:24.945Z,5
2017-02-12T15:53:35.689Z,5
2017-02-12T15:54:46.451Z,5
2017-02-12T15:55:57.200Z,5
2017-02-12T15:57:07.953Z,5
2017-02-12T15:58:18.697Z,5
2017-02-12T15:59:29.452Z,5
2017-02-12T16:00:39.443Z,5
2017-02-12T16:01:49.811Z,5
2017-02-12T16:02:59.783Z,0
2017-02-12T16:04:10.150Z,0
2017-02-12T16:05:20.912Z,0
2017-02-12T16:06:31.299Z,0
2017-02-12T16:07:42.081Z,0
2017-02-12T16:08:52.838Z,0
2017-02-12T16:10:03.610Z,0
2017-02-12T16:11:14.005Z,0
2017-02-12T16:12:23.581Z,0
2017-02-12T16:13:34.353Z,0
2017-02-12T16:14:44.398Z,0
2017-02-12T16:15:55.146Z,0
2017-02-12T16:17:05.916Z,0
2017-02-12T16:18:16.684Z,0
2017-02-12T16:19:27.097Z,0
2017-02-12T16:20:37.065Z,0
2017-02-12T16:21:47.813Z,0
2017-02-12T16:22:58.174Z,0
2017-02-12T16:24:08.939Z,0
2017-02-12T16:25:19.712Z,0
2017-02-12T16:26:30.085Z,0
2017-02-12T16:27:40.446Z,0
2017-02-12T16:28:51.199Z,0
2017-02-12T16:30:01.955Z,0
2017-02-12T16:31:12.729Z,0
2017-02-12T16:32:22.703Z,0
2017-02-12T16:33:33.066Z,0
2017-02-12T16:34:43.431Z,0
2017-02-12T16:35:53.401Z,0
2017-02-12T16:37:03.770Z,0
2017-02-12T16:38:14.589Z,0
2017-02-12T16:39:24.945Z,0
2017-02-12T16:40:35.318Z,0
2017-02-12T16:41:45.667Z,0
2017-02-12T16:42:56.053Z,0
2017-02-12T16:44:06.861Z,0
2017-02-12T16:45:17.476Z,0
2017-02-12T16:46:28.256Z,0
2017-02-12T16:47:37.434Z,0
2017-02-12T16:48:46.989Z,0
2017-02-12T16:49:57.800Z,0
2017-02-12T16:51:07.756Z,0
2017-02-12T16:52:18.505Z,0
2017-02-12T16:53:29.262Z,0
2017-02-12T16:54:39.622Z,0
2017-02-12T16:55:50.375Z,0
2017-02-12T16:57:01.142Z,0
2017-02-12T16:58:11.498Z,0
2017-02-12T16:59:22.252Z,0
2017-02-12T17:00:33.007Z,0
2017-02-12T17:01:43.373Z,0
2017-02-12T17:02:54.129Z,0
2017-02-12T17:04:04.124Z,0
2017-02-12T17:05:14.488Z,0
2017-02-12T17:06:25.266Z,0
2017-02-12T17:07:35.287Z,0
2017-02-12T17:08:45.273Z,0
2017-02-12T17:09:55.655Z,0
2017-02-12T17:11:06.416Z,0
2017-02-12T17:12:16.368Z,0
2017-02-12T17:13:26.729Z,0
2017-02-12T17:14:37.098Z,0
2017-02-12T17:15:47.069Z,0
2017-02-12T17:16:57.816Z,0
2017-02-12T17:18:08.184Z,0
2017-02-12T17:19:19.040Z,0
2017-02-12T17:20:29.027Z,0
2017-02-12T17:21:39.807Z,0
2017-02-12T17:22:50.199Z,0
2017-02-12T17:24:00.965Z,0
2017-02-12T17:25:11.422Z,0
2017-02-12T17:26:21.780Z,0
2017-02-12T17:27:32.146Z,0
2017-02-12T17:28:41.727Z,0
2017-02-12T17:29:52.086Z,0
2017-02-12T17:31:02.050Z,0
2017-02-12T17:32:12.419Z,0
2017-02-12T17:33:23.202Z,0
2017-02-12T17:34:33.578Z,0